Time;durP1;ratioP1;P1;durP2;ratioP2;P2;SDS_P1;SDS_P2;PMS_P1;PMS_P2;Temp;Humidity;BMP_temperature;BMP_pressure;BME280_temperature;BME280_humidity;BME280_pressure;Samples;Min_cycle;Max_cycle;Signal;HPM_P1;HPM_P2
2021/09/24 00:00:11;;;;;;;11.95;2.95;;;;;;;12.95;95.91;101865.25;5029081;28;20021;-79
2021/09/24 00:02:40;;;;;;;6.60;2.40;;;;;;;12.91;96.10;101870.41;5030518;28;20021;-75
2021/09/24 00:05:06;;;;;;;7.95;2.45;;;;;;;12.87;96.31;101865.91;5030304;28;20034;-76
2021/09/24 00:07:31;;;;;;;10.50;2.75;;;;;;;12.84;97.29;101865.84;5029577;28;20080;-74
2021/09/24 00:09:57;;;;;;;8.15;2.45;;;;;;;12.84;97.20;101860.56;5029657;28;20057;-79
2021/09/24 00:12:22;;;;;;;12.10;2.70;;;;;;;12.81;97.19;101857.00;5028934;28;20103;-77
2021/09/24 00:14:48;;;;;;;6.85;2.45;;;;;;;12.78;96.98;101856.03;5030521;28;20108;-76
2021/09/24 00:17:13;;;;;;;6.93;2.10;;;;;;;12.77;97.04;101863.06;5030680;28;20029;-76
2021/09/24 00:19:39;;;;;;;6.50;2.47;;;;;;;12.74;96.83;101859.47;5027651;28;20155;-75
2021/09/24 00:22:05;;;;;;;7.18;2.67;;;;;;;12.73;97.24;101861.19;5028211;28;20399;-78
2021/09/24 00:24:30;;;;;;;9.48;3.00;;;;;;;12.75;97.85;101863.88;5029671;28;20033;-74
2021/09/24 00:26:56;;;;;;;11.63;2.75;;;;;;;12.75;98.15;101856.88;5024964;28;20046;-77
2021/09/24 00:29:21;;;;;;;10.98;2.38;;;;;;;12.81;98.05;101857.00;5030287;28;20099;-78
2021/09/24 00:31:47;;;;;;;7.28;3.25;;;;;;;12.87;98.36;101855.34;5028438;28;20037;-78
2021/09/24 00:34:12;;;;;;;10.93;2.50;;;;;;;12.93;98.62;101856.38;5030384;28;20484;-75
2021/09/24 00:36:38;;;;;;;10.85;2.75;;;;;;;13.01;98.62;101847.75;5028479;28;20032;-75
2021/09/24 00:39:03;;;;;;;7.20;2.53;;;;;;;13.05;98.63;101847.88;5027377;28;20021;-76
2021/09/24 00:41:28;;;;;;;6.65;2.83;;;;;;;13.07;98.56;101838.19;5029929;28;20025;-78
2021/09/24 00:43:54;;;;;;;11.23;2.35;;;;;;;13.10;98.39;101833.00;5030573;28;20029;-77
2021/09/24 00:46:19;;;;;;;8.55;2.60;;;;;;;13.13;98.10;101837.44;5027810;28;20462;-79
2021/09/24 00:48:46;;;;;;;7.00;2.50;;;;;;;13.15;98.07;101835.75;5029088;28;20502;-77
2021/09/24 00:51:12;;;;;;;6.32;2.15;;;;;;;13.19;98.18;101836.72;5029961;28;20053;-78
2021/09/24 00:53:37;;;;;;;9.90;2.70;;;;;;;13.24;98.36;101835.94;5028270;28;20050;-75
2021/09/24 00:56:03;;;;;;;8.98;2.85;;;;;;;13.32;97.94;101837.00;5027974;28;20048;-78
2021/09/24 00:58:28;;;;;;;8.30;2.63;;;;;;;13.41;97.66;101844.25;5029992;28;20036;-76
2021/09/24 01:00:54;;;;;;;10.10;2.53;;;;;;;13.48;97.37;101830.31;5029255;28;20025;-76
2021/09/24 01:03:20;;;;;;;13.32;2.90;;;;;;;13.55;97.15;101825.13;5023595;28;20044;-77
2021/09/24 01:05:47;;;;;;;8.73;2.47;;;;;;;13.59;97.22;101824.34;5029058;28;20024;-75
2021/09/24 01:08:14;;;;;;;5.43;2.40;;;;;;;13.59;96.72;101822.59;5027735;28;20475;-76
2021/09/24 01:10:40;;;;;;;7.70;2.30;;;;;;;13.63;96.54;101813.88;5028419;28;20399;-74
2021/09/24 01:13:05;;;;;;;7.60;2.28;;;;;;;13.64;96.05;101814.75;5030271;28;20082;-77
2021/09/24 01:15:31;;;;;;;8.10;2.35;;;;;;;13.61;96.42;101820.88;5029804;28;20100;-75
2021/09/24 01:17:56;;;;;;;6.47;2.75;;;;;;;13.66;96.51;101823.63;5029230;28;20127;-79
2021/09/24 01:20:22;;;;;;;9.02;2.53;;;;;;;13.71;96.25;101818.41;5028775;28;20095;-78
2021/09/24 01:22:50;;;;;;;12.10;2.90;;;;;;;13.78;96.06;101817.66;5030017;28;20033;-77
2021/09/24 01:25:18;;;;;;;7.25;3.20;;;;;;;13.82;95.43;101820.41;5031107;28;20028;-76
2021/09/24 01:27:43;;;;;;;9.88;2.88;;;;;;;13.88;95.52;101813.44;5031905;28;20104;-78
2021/09/24 01:30:10;;;;;;;12.35;3.15;;;;;;;13.91;95.16;101813.50;5032634;28;20117;-76
2021/09/24 01:32:35;;;;;;;8.55;2.50;;;;;;;13.92;95.06;101804.69;5033104;28;20036;-75
2021/09/24 01:35:04;;;;;;;8.40;2.53;;;;;;;13.95;94.90;101804.75;5032341;28;20029;-74
2021/09/24 01:37:31;;;;;;;11.65;2.80;;;;;;;13.93;94.50;101806.47;5030244;28;20452;-74
2021/09/24 01:39:56;;;;;;;10.63;2.70;;;;;;;13.87;94.29;101801.94;5032770;28;21516;-78
2021/09/24 01:42:22;;;;;;;8.13;2.53;;;;;;;13.83;94.62;101794.81;5032546;28;20080;-76
2021/09/24 01:44:48;;;;;;;11.05;2.72;;;;;;;13.79;94.05;101796.50;5032012;28;20108;-75
2021/09/24 01:47:13;;;;;;;9.63;2.40;;;;;;;13.74;94.21;101792.91;5033108;28;20078;-77
2021/09/24 01:49:39;;;;;;;6.55;2.45;;;;;;;13.69;94.29;101796.31;5031703;28;20028;-75
2021/09/24 01:52:04;;;;;;;4.85;2.33;;;;;;;13.59;94.47;101788.22;5032547;28;20053;-75
2021/09/24 01:54:30;;;;;;;10.43;2.47;;;;;;;13.49;94.59;101788.88;5032026;28;20028;-77
2021/09/24 01:56:55;;;;;;;8.15;2.72;;;;;;;13.39;95.06;101781.63;5032118;28;20467;-77
2021/09/24 01:59:21;;;;;;;12.32;2.53;;;;;;;13.29;95.26;101775.22;5029675;28;20479;-75
2021/09/24 02:01:46;;;;;;;10.13;2.85;;;;;;;13.23;95.80;101775.13;5032575;28;20025;-79
2021/09/24 02:04:12;;;;;;;8.27;2.90;;;;;;;13.15;95.83;101773.19;5027477;28;20029;-75
2021/09/24 02:06:37;;;;;;;7.47;2.72;;;;;;;13.09;96.21;101769.53;5032970;28;20028;-78
2021/09/24 02:09:03;;;;;;;9.45;3.35;;;;;;;13.02;96.60;101764.97;5031528;28;20036;-78
2021/09/24 02:11:28;;;;;;;12.77;3.28;;;;;;;12.97;96.77;101776.34;5030282;28;20083;-76
2021/09/24 02:13:54;;;;;;;9.60;2.70;;;;;;;12.90;96.97;101769.16;5032609;28;20453;-75
2021/09/24 02:16:19;;;;;;;7.65;2.80;;;;;;;12.84;96.99;101771.66;5031451;28;20392;-76
2021/09/24 02:18:45;;;;;;;10.15;2.95;;;;;;;12.79;97.11;101774.19;5032934;28;20020;-76
2021/09/24 02:21:10;;;;;;;12.57;2.88;;;;;;;12.73;97.49;101767.88;5030446;28;20132;-77
2021/09/24 02:23:37;;;;;;;7.07;2.58;;;;;;;12.67;97.43;101768.66;5031200;28;20045;-77
2021/09/24 02:26:04;;;;;;;6.50;2.90;;;;;;;12.61;97.65;101776.41;5029058;28;20452;-77
2021/09/24 02:28:30;;;;;;;12.43;3.10;;;;;;;12.56;97.80;101772.75;5032041;28;20705;-76
2021/09/24 02:30:56;;;;;;;8.07;2.85;;;;;;;12.48;97.93;101768.22;5031001;28;20561;-78
2021/09/24 02:33:22;;;;;;;9.85;3.60;;;;;;;12.44;98.02;101770.75;5031183;28;20075;-76
2021/09/24 02:35:47;;;;;;;12.55;3.60;;;;;;;12.40;98.55;101775.06;5031451;28;20029;-76
2021/09/24 02:38:13;;;;;;;10.25;3.15;;;;;;;12.37;98.62;101768.78;5027563;28;20471;-77
2021/09/24 02:40:38;;;;;;;10.25;3.42;;;;;;;12.33;98.79;101767.84;5030015;28;20029;-74
2021/09/24 02:43:04;;;;;;;7.65;3.47;;;;;;;12.27;98.94;101762.41;5031246;28;20467;-75
2021/09/24 02:45:29;;;;;;;10.75;3.45;;;;;;;12.24;99.06;101772.91;5031458;28;20445;-75
2021/09/24 02:47:55;;;;;;;8.88;3.28;;;;;;;12.20;99.00;101774.56;5031173;28;20025;-74
2021/09/24 02:50:20;;;;;;;11.25;3.30;;;;;;;12.17;99.13;101770.94;5030935;28;20036;-75
2021/09/24 02:52:45;;;;;;;8.90;3.08;;;;;;;12.14;99.06;101771.78;5031623;28;20492;-76
2021/09/24 02:55:11;;;;;;;10.70;3.42;;;;;;;12.11;99.02;101762.06;5030196;28;20383;-75
2021/09/24 02:57:37;;;;;;;9.20;3.65;;;;;;;12.09;99.44;101763.75;5030782;28;20102;-74
2021/09/24 03:00:06;;;;;;;11.25;3.53;;;;;;;12.06;99.40;101766.31;5030644;28;20029;-77
2021/09/24 03:02:31;;;;;;;8.20;3.40;;;;;;;12.04;99.44;101764.47;5030572;28;20029;-78
2021/09/24 03:04:57;;;;;;;9.25;4.00;;;;;;;12.02;99.51;101767.09;5027847;28;20052;-77
2021/09/24 03:07:22;;;;;;;10.55;3.65;;;;;;;12.02;99.74;101766.19;5028272;28;20116;-74
2021/09/24 03:09:48;;;;;;;8.98;3.60;;;;;;;12.00;99.98;101763.50;5030302;28;20047;-77
2021/09/24 03:12:13;;;;;;;10.63;3.50;;;;;;;12.00;100.00;101766.13;5030520;28;20088;-75
2021/09/24 03:14:39;;;;;;;10.15;3.60;;;;;;;11.99;100.00;101756.44;5028283;28;20040;-78
2021/09/24 03:17:05;;;;;;;10.10;3.80;;;;;;;11.99;100.00;101759.06;5032352;28;20030;-75
2021/09/24 03:19:30;;;;;;;21.45;4.15;;;;;;;11.98;100.00;101759.94;5030417;28;20446;-75
2021/09/24 03:21:56;;;;;;;11.80;3.85;;;;;;;11.97;100.00;101751.13;5029788;28;20022;-77
2021/09/24 03:24:21;;;;;;;14.23;4.38;;;;;;;11.97;100.00;101752.88;5029295;28;20025;-76
2021/09/24 03:26:47;;;;;;;11.15;3.58;;;;;;;11.99;100.00;101756.44;5030831;28;20025;-75
2021/09/24 03:29:13;;;;;;;13.68;4.30;;;;;;;12.02;100.00;101756.53;5025968;28;20295;-75
2021/09/24 03:31:40;;;;;;;12.95;3.88;;;;;;;12.04;100.00;101738.97;5030589;28;20095;-77
2021/09/24 03:34:06;;;;;;;9.65;3.80;;;;;;;12.06;100.00;101737.28;5029756;28;20083;-74
2021/09/24 03:36:32;;;;;;;9.80;3.58;;;;;;;12.09;100.00;101740.00;5031546;28;20025;-76
2021/09/24 03:38:58;;;;;;;9.45;4.13;;;;;;;12.16;100.00;101740.16;5032156;28;20369;-76
2021/09/24 03:41:23;;;;;;;9.05;3.70;;;;;;;12.19;100.00;101743.75;5030483;28;20124;-76
2021/09/24 03:43:49;;;;;;;13.70;4.32;;;;;;;12.22;100.00;101737.66;5029260;28;20414;-80
2021/09/24 03:46:14;;;;;;;15.98;4.00;;;;;;;12.22;100.00;101737.66;5028626;28;20021;-76
2021/09/24 03:48:40;;;;;;;14.88;3.95;;;;;;;12.27;100.00;101738.66;5029922;28;20543;-78
2021/09/24 03:51:05;;;;;;;8.60;4.15;;;;;;;12.32;100.00;101739.66;5027158;28;20076;-75
2021/09/24 03:53:31;;;;;;;9.85;3.75;;;;;;;12.38;100.00;101739.78;5030058;28;20287;-76
2021/09/24 03:55:57;;;;;;;12.60;3.55;;;;;;;12.44;100.00;101724.13;5029193;28;20021;-76
2021/09/24 03:58:22;;;;;;;13.13;4.20;;;;;;;12.48;100.00;101727.72;5029844;28;20510;-78
2021/09/24 04:00:49;;;;;;;16.60;4.60;;;;;;;12.55;100.00;101726.13;5030717;28;20036;-75
2021/09/24 04:03:16;;;;;;;9.85;4.18;;;;;;;12.59;100.00;101728.84;5026325;28;20059;-75
2021/09/24 04:05:41;;;;;;;7.50;4.20;;;;;;;12.65;100.00;101728.09;5031013;28;20045;-75
2021/09/24 04:08:07;;;;;;;14.40;4.18;;;;;;;12.70;100.00;101731.72;5030601;28;20025;-78
2021/09/24 04:10:33;;;;;;;11.27;4.18;;;;;;;12.76;100.00;101742.41;5029256;28;20087;-78
2021/09/24 04:12:58;;;;;;;12.48;5.03;;;;;;;12.81;100.00;101735.50;5028652;28;20029;-77
2021/09/24 04:15:24;;;;;;;12.32;4.45;;;;;;;12.86;100.00;101737.34;5028424;28;20021;-79
2021/09/24 04:17:49;;;;;;;10.38;4.18;;;;;;;12.93;100.00;101739.28;5030805;28;20033;-74
2021/09/24 04:20:15;;;;;;;13.90;4.22;;;;;;;12.98;100.00;101738.50;5026713;28;20128;-74
2021/09/24 04:22:40;;;;;;;9.98;4.32;;;;;;;13.01;100.00;101737.69;5028501;28;20120;-75
2021/09/24 04:25:07;;;;;;;7.15;4.30;;;;;;;13.06;100.00;101738.69;5027997;28;20021;-74
2021/09/24 04:27:32;;;;;;;9.95;4.10;;;;;;;13.09;100.00;101741.38;5028259;28;20133;-77
2021/09/24 04:29:57;;;;;;;16.15;4.93;;;;;;;13.14;100.00;101747.66;5029235;28;20499;-79
2021/09/24 04:32:23;;;;;;;11.60;3.88;;;;;;;13.18;100.00;101740.66;5029897;28;20060;-74
2021/09/24 04:34:49;;;;;;;9.23;3.78;;;;;;;13.23;100.00;101740.78;5028256;28;20402;-77
2021/09/24 04:37:14;;;;;;;9.98;3.90;;;;;;;13.26;100.00;101731.13;5028992;28;20121;-75
2021/09/24 04:39:40;;;;;;;9.75;3.80;;;;;;;13.31;100.00;101725.94;5028930;28;20108;-78
2021/09/24 04:42:05;;;;;;;8.57;3.92;;;;;;;13.33;100.00;101724.22;5029432;28;20038;-75
2021/09/24 04:44:31;;;;;;;11.43;5.72;;;;;;;13.38;100.00;101721.72;5029280;28;20393;-76
2021/09/24 04:46:57;;;;;;;20.13;5.88;;;;;;;13.42;100.00;101726.19;5030626;28;20029;-75
2021/09/24 04:49:22;;;;;;;18.80;6.53;;;;;;;13.47;100.00;101721.88;5026878;28;20108;-75
2021/09/24 04:51:48;;;;;;;20.88;6.90;;;;;;;13.55;100.00;101730.84;5030222;28;20024;-78
2021/09/24 04:54:13;;;;;;;26.45;9.13;;;;;;;13.65;100.00;101731.91;5028868;28;20021;-78
2021/09/24 04:56:39;;;;;;;24.23;9.20;;;;;;;13.70;100.00;101732.88;5029160;28;20071;-76
2021/09/24 04:59:04;;;;;;;24.10;10.18;;;;;;;13.78;100.00;101731.25;5032823;28;20460;-74
2021/09/24 05:01:29;;;;;;;32.53;12.48;;;;;;;13.87;100.00;101722.56;5033187;28;20083;-77
2021/09/24 05:03:55;;;;;;;27.60;11.73;;;;;;;13.99;100.00;101716.59;5029563;28;20017;-76
2021/09/24 05:06:20;;;;;;;28.67;12.50;;;;;;;14.05;100.00;101711.41;5030316;28;20025;-78
2021/09/24 05:08:46;;;;;;;28.88;12.93;;;;;;;14.09;100.00;101713.22;5031922;28;20075;-73
2021/09/24 05:11:11;;;;;;;34.80;12.40;;;;;;;14.12;100.00;101717.69;5031518;28;20035;-79
2021/09/24 05:13:37;;;;;;;41.92;15.15;;;;;;;14.18;100.00;101717.78;5032959;28;20398;-78
2021/09/24 05:16:02;;;;;;;41.05;15.57;;;;;;;14.23;100.00;101725.78;5032303;28;20030;-78
2021/09/24 05:18:28;;;;;;;38.42;15.40;;;;;;;14.24;100.00;101725.81;5033041;28;20036;-76
2021/09/24 05:20:53;;;;;;;42.85;16.98;;;;;;;14.27;100.00;101725.88;5032083;28;20549;-75
2021/09/24 05:23:19;;;;;;;40.60;17.25;;;;;;;14.32;100.00;101715.34;5033318;28;20512;-74
2021/09/24 05:25:44;;;;;;;58.28;19.40;;;;;;;14.39;100.00;101716.34;5032588;28;20021;-76
2021/09/24 05:28:09;;;;;;;35.38;16.20;;;;;;;14.49;100.00;101712.97;5032623;28;20049;-79
2021/09/24 05:30:35;;;;;;;48.67;20.50;;;;;;;14.55;100.00;101713.03;5032955;28;20033;-77
2021/09/24 05:33:00;;;;;;;47.17;19.85;;;;;;;14.60;100.00;101710.47;5031634;28;20033;-77
2021/09/24 05:35:26;;;;;;;45.83;19.25;;;;;;;14.60;100.00;101706.06;5032232;28;20033;-76
2021/09/24 05:37:51;;;;;;;62.90;22.17;;;;;;;14.62;100.00;101708.72;5034208;28;20636;-80
2021/09/24 05:40:17;;;;;;;61.15;21.90;;;;;;;14.69;100.00;101715.94;5029825;28;20029;-77
2021/09/24 05:42:42;;;;;;;54.13;21.50;;;;;;;14.74;100.00;101708.91;5030116;28;20532;-79
2021/09/24 05:45:11;;;;;;;63.92;23.15;;;;;;;14.83;100.00;101713.47;5033735;28;20025;-77
2021/09/24 05:47:38;;;;;;;65.35;23.48;;;;;;;14.90;100.00;101709.13;5033621;28;20502;-77
2021/09/24 05:50:11;;;;;;;62.92;24.63;;;;;;;14.95;100.00;101702.13;5030767;28;20036;-75
2021/09/24 05:52:37;;;;;;;60.13;23.20;;;;;;;15.02;100.00;101706.63;5031341;28;20456;-76
2021/09/24 05:55:03;;;;;;;62.72;23.48;;;;;;;15.12;100.00;101710.28;5030504;28;20025;-77
2021/09/24 05:57:28;;;;;;;71.97;25.63;;;;;;;15.16;100.00;101712.09;5032438;28;20109;-75
2021/09/24 05:59:54;;;;;;;77.93;26.70;;;;;;;15.22;100.00;101716.56;5032103;28;20044;-75
2021/09/24 06:02:19;;;;;;;69.85;26.30;;;;;;;15.27;100.00;101714.84;5031614;28;20029;-77
2021/09/24 06:04:44;;;;;;;80.55;28.85;;;;;;;15.35;100.00;101721.13;5031549;28;20034;-77
2021/09/24 06:07:10;;;;;;;79.15;29.92;;;;;;;15.42;100.00;101719.44;5034256;28;20384;-77
2021/09/24 06:09:35;;;;;;;83.07;29.70;;;;;;;15.48;100.00;101711.56;5031832;28;20021;-78
2021/09/24 06:12:00;;;;;;;65.18;27.75;;;;;;;15.63;100.00;101716.13;5031205;28;20064;-75
2021/09/24 06:14:26;;;;;;;75.25;29.20;;;;;;;15.67;100.00;101716.16;5032379;28;20435;-75
2021/09/24 06:16:51;;;;;;;71.43;31.20;;;;;;;15.77;100.00;101708.28;5033027;28;20057;-76
2021/09/24 06:19:17;;;;;;;67.72;28.67;;;;;;;15.84;100.00;101708.41;5032394;28;20021;-75
2021/09/24 06:21:45;;;;;;;52.90;24.40;;;;;;;15.92;100.00;101704.91;5031900;28;20132;-75
2021/09/24 06:24:10;;;;;;;65.75;27.38;;;;;;;15.97;100.00;101708.50;5030771;28;20030;-76
2021/09/24 06:26:36;;;;;;;63.53;27.48;;;;;;;16.06;100.00;101718.28;5028779;28;20033;-79
2021/09/24 06:29:02;;;;;;;64.97;27.75;;;;;;;16.11;100.00;101722.75;5028770;28;20025;-79
2021/09/24 06:31:28;;;;;;;73.18;27.02;;;;;;;16.16;100.00;101720.16;5030753;28;20025;-79
2021/09/24 06:33:53;;;;;;;49.53;25.08;;;;;;;16.28;100.00;101730.84;5032599;28;20391;-78
2021/09/24 06:36:21;;;;;;;46.67;22.23;;;;;;;16.38;100.00;101715.88;5031993;28;20069;-80
2021/09/24 06:38:46;;;;;;;53.00;21.92;;;;;;;16.45;100.00;101715.00;5023756;28;20117;-79
2021/09/24 06:41:15;;;;;;;41.35;22.42;;;;;;;16.52;100.00;101707.97;5029446;28;20458;-81
2021/09/24 06:43:40;;;;;;;50.80;21.70;;;;;;;16.55;100.00;101712.41;5027990;28;20029;-81
2021/09/24 06:46:06;;;;;;;40.30;21.23;;;;;;;16.57;100.00;101716.00;5032438;28;20487;-79
2021/09/24 06:48:32;;;;;;;43.03;22.13;;;;;;;16.60;100.00;101718.66;5026703;28;20041;-76
2021/09/24 06:50:57;;;;;;;43.38;21.55;;;;;;;16.64;100.00;101724.00;5026368;28;20021;-79
2021/09/24 06:53:22;;;;;;;42.08;20.77;;;;;;;16.68;100.00;101730.22;5024960;28;20104;-78
2021/09/24 06:56:08;;;;;;;57.80;23.98;;;;;;;16.77;100.00;101726.72;5020450;28;20038;-77
2021/09/24 06:58:33;;;;;;;39.40;20.90;;;;;;;16.86;100.00;101719.69;5027098;28;20395;-76
2021/09/24 07:00:59;;;;;;;44.10;21.00;;;;;;;16.94;100.00;101718.84;5026333;28;20033;-76
2021/09/24 07:03:25;;;;;;;44.33;20.13;;;;;;;17.06;100.00;101721.56;5016133;28;20021;-76
2021/09/24 07:05:51;;;;;;;40.15;20.77;;;;;;;17.08;100.00;101717.16;5028548;28;20502;-77
2021/09/24 07:08:16;;;;;;;32.83;18.02;;;;;;;17.15;100.00;101721.59;5029640;28;20476;-76
2021/09/24 07:10:43;;;;;;;32.03;18.50;;;;;;;17.17;100.00;101727.81;5026016;28;20037;-76
2021/09/24 07:13:08;;;;;;;40.30;20.67;;;;;;;17.21;100.00;101718.06;5027638;28;20550;-76
2021/09/24 07:15:33;;;;;;;36.85;19.50;;;;;;;17.32;99.59;101726.06;5025952;28;20045;-76
2021/09/24 07:17:59;;;;;;;25.25;17.75;;;;;;;17.43;99.63;101723.44;5028516;28;20033;-77
2021/09/24 07:20:24;;;;;;;35.22;18.30;;;;;;;17.56;98.76;101716.38;5029320;28;20033;-77
2021/09/24 07:22:50;;;;;;;30.63;16.98;;;;;;;17.75;97.25;101712.84;5026846;28;20029;-76
2021/09/24 07:25:15;;;;;;;32.25;18.05;;;;;;;17.83;96.94;101720.84;5029317;28;20021;-77
2021/09/24 07:27:42;;;;;;;28.65;16.10;;;;;;;17.93;96.05;101706.66;5027121;28;20049;-77
2021/09/24 07:30:08;;;;;;;28.85;16.83;;;;;;;18.02;95.65;101713.78;5030380;28;20442;-77
2021/09/24 07:32:33;;;;;;;30.48;16.77;;;;;;;18.08;94.91;101720.88;5029652;28;20037;-78
2021/09/24 07:34:59;;;;;;;28.85;14.25;;;;;;;18.18;94.98;101720.88;5026563;28;20472;-75
2021/09/24 07:37:24;;;;;;;26.33;13.90;;;;;;;18.22;93.92;101719.09;5024349;28;20036;-78
2021/09/24 07:39:52;;;;;;;29.95;15.25;;;;;;;18.25;94.21;101723.53;5026599;28;20021;-76
2021/09/24 07:42:18;;;;;;;27.73;14.60;;;;;;;18.28;93.87;101723.53;5023298;28;20108;-75
2021/09/24 07:44:43;;;;;;;25.58;14.07;;;;;;;18.34;94.26;101728.84;5028890;28;20121;-76
2021/09/24 07:47:09;;;;;;;25.13;13.93;;;;;;;18.40;93.53;101718.16;5028283;28;20032;-77
2021/09/24 07:49:55;;;;;;;35.30;14.20;;;;;;;18.47;92.91;101714.59;5029015;28;20412;-78
2021/09/24 07:52:20;;;;;;;27.52;15.32;;;;;;;18.61;92.69;101719.00;5029725;28;20033;-77
2021/09/24 07:54:45;;;;;;;20.23;13.05;;;;;;;18.67;91.82;101724.34;5028556;28;20091;-76
2021/09/24 07:57:11;;;;;;;26.63;12.98;;;;;;;18.72;90.28;101714.53;5028037;28;20033;-76
2021/09/24 07:59:36;;;;;;;20.77;10.95;;;;;;;18.79;90.45;101716.28;5030597;28;20384;-76
2021/09/24 08:02:02;;;;;;;21.20;10.63;;;;;;;18.75;89.96;101713.66;5028279;28;20045;-78
2021/09/24 08:04:27;;;;;;;21.20;12.35;;;;;;;18.76;91.05;101720.72;5025852;28;20029;-77
2021/09/24 08:06:53;;;;;;;21.13;10.82;;;;;;;18.86;89.90;101718.03;5030025;28;20450;-76
2021/09/24 08:09:18;;;;;;;15.25;9.43;;;;;;;18.90;89.34;101710.94;5025542;28;20025;-77
2021/09/24 08:11:44;;;;;;;20.10;11.05;;;;;;;18.96;88.90;101712.69;5028593;28;20022;-78
2021/09/24 08:14:09;;;;;;;18.67;11.13;;;;;;;19.03;87.80;101706.44;5029139;28;20475;-78
2021/09/24 08:16:35;;;;;;;21.90;10.85;;;;;;;18.94;88.37;101709.16;5032899;28;20033;-76
2021/09/24 08:19:00;;;;;;;21.83;11.50;;;;;;;19.02;88.22;101712.69;5024511;28;20423;-76
2021/09/24 08:21:33;;;;;;;19.30;10.75;;;;;;;19.04;88.33;101721.56;5028953;28;20084;-75
2021/09/24 08:23:58;;;;;;;26.45;11.30;;;;;;;19.09;87.39;101719.75;5021085;28;20040;-77
2021/09/24 08:26:44;;;;;;;23.13;11.43;;;;;;;19.18;87.84;101714.38;5026226;28;20021;-76
2021/09/24 08:29:09;;;;;;;19.15;10.05;;;;;;;19.27;86.59;101713.44;5025201;28;20523;-76
2021/09/24 08:31:35;;;;;;;14.00;9.07;;;;;;;19.17;87.42;101709.94;5024396;28;20330;-75
2021/09/24 08:34:00;;;;;;;17.83;9.60;;;;;;;19.27;86.25;101709.88;5025818;28;20103;-76
2021/09/24 08:36:26;;;;;;;15.57;7.88;;;;;;;19.23;85.35;101705.47;5023719;28;20057;-77
2021/09/24 08:38:52;;;;;;;16.52;7.85;;;;;;;19.17;85.35;101715.25;5023549;28;20360;-78
2021/09/24 08:41:19;;;;;;;15.18;7.25;;;;;;;19.08;84.95;101717.97;5029776;28;20025;-77
2021/09/24 08:44:07;;;;;;;11.90;6.32;;;;;;;19.13;84.07;101716.19;5028896;28;20029;-77
2021/09/24 08:46:34;;;;;;;23.83;6.68;;;;;;;19.12;83.73;101714.41;5027653;28;20041;-76
2021/09/24 08:49:02;;;;;;;15.63;6.57;;;;;;;19.15;83.71;101719.75;5029253;28;20483;-76
2021/09/24 08:51:28;;;;;;;13.77;6.50;;;;;;;19.40;82.88;101719.59;5043759;28;20033;-75
2021/09/24 08:53:53;;;;;;;19.27;6.97;;;;;;;19.51;82.59;101712.38;5027766;28;20041;-76
2021/09/24 08:56:19;;;;;;;15.35;6.00;;;;;;;19.76;82.21;101711.34;5028827;28;20021;-76
2021/09/24 08:58:44;;;;;;;8.57;5.50;;;;;;;19.91;79.76;101707.69;5021499;28;20542;-76
2021/09/24 09:01:10;;;;;;;12.43;5.40;;;;;;;19.94;80.32;101710.31;5028066;28;20026;-77
2021/09/24 09:03:59;;;;;;;13.02;5.18;;;;;;;19.90;78.65;101704.13;5018315;28;21213;-77
2021/09/24 09:06:29;;;;;;;11.02;4.88;;;;;;;19.93;79.29;101703.22;5029438;28;20111;-78
2021/09/24 09:09:23;;;;;;;16.13;5.30;;;;;;;20.06;77.55;101702.19;5020082;28;20048;-77
2021/09/24 09:11:54;;;;;;;10.85;5.53;;;;;;;20.04;75.91;101693.31;5027292;28;20037;-77
2021/09/24 09:14:25;;;;;;;15.68;4.95;;;;;;;20.14;75.80;101697.66;5029953;28;20052;-76
2021/09/24 09:16:50;;;;;;;10.90;4.55;;;;;;;20.28;75.78;101699.31;5028704;28;20048;-77
2021/09/24 09:19:17;;;;;;;8.80;4.07;;;;;;;20.39;74.69;101695.63;5026982;28;20033;-78
2021/09/24 09:21:45;;;;;;;14.65;4.53;;;;;;;20.49;74.66;101696.41;5028449;28;20049;-77
2021/09/24 09:24:42;;;;;;;6.72;4.40;;;;;;;20.25;74.20;101686.00;5027456;28;20045;-77
2021/09/24 09:27:21;;;;;;;11.68;4.63;;;;;;;20.01;74.84;101685.34;5028039;28;20049;-77
2021/09/24 09:30:16;;;;;;;10.77;4.28;;;;;;;20.04;75.34;101701.34;5028332;28;20389;-78
2021/09/24 09:33:04;;;;;;;9.77;4.63;;;;;;;20.11;73.89;101680.78;5022865;28;20110;-79
2021/09/24 09:36:15;;;;;;;10.00;5.25;;;;;;;20.34;73.86;101677.88;5026762;28;20030;-77
2021/09/24 09:38:42;;;;;;;10.73;4.72;;;;;;;20.68;72.46;101677.50;5014526;28;20485;-77
2021/09/24 09:41:27;;;;;;;11.82;5.05;;;;;;;20.87;71.67;101681.72;5028248;28;20116;-77
2021/09/24 09:44:01;;;;;;;6.95;3.42;;;;;;;21.14;69.96;101671.56;5027627;28;20073;-76
2021/09/24 09:46:48;;;;;;;8.52;4.25;;;;;;;21.27;68.33;101663.34;5034139;28;20038;-76
2021/09/24 09:49:16;;;;;;;8.93;4.20;;;;;;;21.44;66.83;101647.91;5020836;28;20029;-77
2021/09/24 09:51:45;;;;;;;13.13;4.70;;;;;;;22.04;64.47;101643.34;5034280;28;20048;-77
2021/09/24 09:54:24;;;;;;;10.02;4.00;;;;;;;22.54;63.52;101644.19;5033059;28;20156;-78
2021/09/24 09:56:50;;;;;;;11.20;3.70;;;;;;;23.53;60.79;101636.59;5033092;28;20087;-78
2021/09/24 09:59:51;;;;;;;7.72;3.83;;;;;;;24.70;56.79;101634.41;5037229;28;20072;-77
2021/09/24 10:02:22;;;;;;;5.57;3.50;;;;;;;25.35;54.41;101625.22;5029945;28;20095;-77
2021/09/24 10:05:18;;;;;;;11.65;4.72;;;;;;;26.13;52.16;101636.09;5021326;28;20037;-77
2021/09/24 10:07:43;;;;;;;11.68;3.65;;;;;;;25.84;52.20;101643.34;5033834;28;20449;-77
2021/09/24 10:10:35;;;;;;;7.43;3.33;;;;;;;25.50;51.86;101631.91;5025710;28;20107;-78
2021/09/24 10:13:05;;;;;;;7.95;3.40;;;;;;;25.49;52.77;101627.44;5031427;28;20025;-76
2021/09/24 10:15:50;;;;;;;7.00;3.38;;;;;;;26.74;48.04;101619.44;5028946;28;20037;-78
2021/09/24 10:18:16;;;;;;;6.65;3.00;;;;;;;27.36;46.69;101609.75;5026878;28;20040;-76
2021/09/24 10:20:42;;;;;;;7.80;2.95;;;;;;;27.81;45.06;101606.94;5055114;28;20045;-77
2021/09/24 10:23:08;;;;;;;6.57;2.70;;;;;;;28.58;43.09;101607.09;5029553;28;20029;-78
2021/09/24 10:25:36;;;;;;;6.95;2.97;;;;;;;28.60;42.28;101602.47;5028820;28;20044;-78
2021/09/24 10:28:28;;;;;;;6.63;2.92;;;;;;;28.20;43.23;101601.63;5028895;28;20427;-78
2021/09/24 10:30:55;;;;;;;8.47;2.87;;;;;;;28.04;43.20;101598.75;5026526;28;20065;-77
2021/09/24 10:33:20;;;;;;;8.10;3.40;;;;;;;28.53;42.17;101608.28;5024489;28;20112;-76
2021/09/24 10:35:55;;;;;;;5.07;3.05;;;;;;;28.58;41.54;101598.97;5028984;28;20531;-79
2021/09/24 10:38:44;;;;;;;6.47;3.08;;;;;;;28.26;44.30;101603.19;5029551;28;20492;-79
2021/09/24 10:41:13;;;;;;;7.32;3.05;;;;;;;28.70;41.92;101602.06;5028280;28;20044;-80
2021/09/24 10:43:59;;;;;;;8.68;2.88;;;;;;;27.98;43.96;101606.22;5028213;28;20125;-78
2021/09/24 10:46:24;;;;;;;5.53;2.78;;;;;;;27.81;44.00;101607.84;5029942;28;20061;-77
2021/09/24 10:49:19;;;;;;;7.53;3.45;;;;;;;27.77;43.59;101609.81;5031909;28;20060;-79
2021/09/24 10:51:56;;;;;;;8.13;3.15;;;;;;;28.07;43.27;101613.97;5026296;28;20022;-80
2021/09/24 10:54:24;;;;;;;10.10;3.33;;;;;;;28.41;43.06;101612.41;5031446;28;20117;-77
2021/09/24 10:57:08;;;;;;;10.05;3.03;;;;;;;28.57;41.78;101604.47;5030965;28;20018;-78
2021/09/24 10:59:33;;;;;;;5.40;2.20;;;;;;;28.27;42.56;101616.63;5031892;28;20112;-76
2021/09/24 11:02:00;;;;;;;6.15;2.35;;;;;;;28.00;41.96;101613.34;5030471;28;20115;-78
2021/09/24 11:04:45;;;;;;;6.28;2.15;;;;;;;28.10;41.31;101605.69;5026506;28;20044;-78
2021/09/24 11:07:50;;;;;;;5.55;2.30;;;;;;;27.55;43.53;101606.25;5028685;28;20175;-78
2021/09/24 11:10:36;;;;;;;6.25;1.77;;;;;;;27.08;43.10;101610.84;5029223;28;20044;-78
2021/09/24 11:13:08;;;;;;;4.57;1.90;;;;;;;26.39;44.32;101610.84;5019239;28;20120;-79
2021/09/24 11:16:02;;;;;;;3.42;1.80;;;;;;;27.10;43.67;101610.78;5032466;28;20041;-80
2021/09/24 11:19:06;;;;;;;5.53;1.80;;;;;;;27.67;42.03;101600.31;5026456;28;20029;-79